sensor_id;sensor_type;location;lat;lon;timestamp;temperature;humidity
19586;DHT22;9939;49.246;9.106;2023-02-28T00:01:14;-0.70;99.90
19586;DHT22;9939;49.246;9.106;2023-02-28T00:03:42;-0.70;99.90
19586;DHT22;9939;49.246;9.106;2023-02-28T00:06:09;-0.60;99.90
19586;DHT22;9939;49.246;9.106;2023-02-28T00:08:36;-0.70;99.90
19586;DHT22;9939;49.246;9.106;2023-02-28T00:11:04;-0.80;99.90
19586;DHT22;9939;49.246;9.106;2023-02-28T00:13:31;-0.80;99.90
19586;DHT22;9939;49.246;9.106;2023-02-28T00:16:00;-0.80;99.90
19586;DHT22;9939;49.246;9.106;2023-02-28T00:21:20;-0.80;99.90
19586;DHT22;9939;49.246;9.106;2023-02-28T00:23:47;-0.80;99.90
19586;DHT22;9939;49.246;9.106;2023-02-28T00:26:14;-0.90;99.90
19586;DHT22;9939;49.246;9.106;2023-02-28T00:28:44;-0.90;99.90
19586;DHT22;9939;49.246;9.106;2023-02-28T00:31:11;-0.80;99.90
19586;DHT22;9939;49.246;9.106;2023-02-28T00:33:38;-0.90;99.90
19586;DHT22;9939;49.246;9.106;2023-02-28T00:36:06;-0.80;99.90
19586;DHT22;9939;49.246;9.106;2023-02-28T00:38:35;-0.90;99.90
19586;DHT22;9939;49.246;9.106;2023-02-28T00:41:02;-0.90;99.90
19586;DHT22;9939;49.246;9.106;2023-02-28T00:43:36;-1.00;99.90
19586;DHT22;9939;49.246;9.106;2023-02-28T00:46:03;-1.00;99.90
19586;DHT22;9939;49.246;9.106;2023-02-28T00:48:30;-1.00;99.90
19586;DHT22;9939;49.246;9.106;2023-02-28T00:50:57;-1.10;99.90
19586;DHT22;9939;49.246;9.106;2023-02-28T00:53:24;-1.00;99.90
19586;DHT22;9939;49.246;9.106;2023-02-28T00:55:51;-1.10;99.90
19586;DHT22;9939;49.246;9.106;2023-02-28T00:58:18;-1.20;99.90
19586;DHT22;9939;49.246;9.106;2023-02-28T01:00:45;-1.20;99.90
19586;DHT22;9939;49.246;9.106;2023-02-28T01:03:16;-1.20;99.90
19586;DHT22;9939;49.246;9.106;2023-02-28T01:05:43;-1.20;99.90
19586;DHT22;9939;49.246;9.106;2023-02-28T01:20:05;-1.40;99.90
19586;DHT22;9939;49.246;9.106;2023-02-28T01:22:57;-1.40;99.90
19586;DHT22;9939;49.246;9.106;2023-02-28T01:25:24;-1.40;99.90
19586;DHT22;9939;49.246;9.106;2023-02-28T01:27:51;-1.50;99.90
19586;DHT22;9939;49.246;9.106;2023-02-28T01:30:18;-1.70;99.90
19586;DHT22;9939;49.246;9.106;2023-02-28T01:32:46;-1.60;99.90
19586;DHT22;9939;49.246;9.106;2023-02-28T01:35:13;-1.60;99.90
19586;DHT22;9939;49.246;9.106;2023-02-28T01:37:40;-1.50;99.90
19586;DHT22;9939;49.246;9.106;2023-02-28T01:40:06;-1.60;99.90
19586;DHT22;9939;49.246;9.106;2023-02-28T01:42:33;-1.70;99.90
19586;DHT22;9939;49.246;9.106;2023-02-28T01:45:06;-1.70;99.90
19586;DHT22;9939;49.246;9.106;2023-02-28T01:47:41;-1.60;99.90
19586;DHT22;9939;49.246;9.106;2023-02-28T01:50:16;-1.60;99.90
19586;DHT22;9939;49.246;9.106;2023-02-28T01:52:43;-1.70;99.90
19586;DHT22;9939;49.246;9.106;2023-02-28T01:55:11;-1.70;99.90
19586;DHT22;9939;49.246;9.106;2023-02-28T01:57:40;-1.70;99.90
19586;DHT22;9939;49.246;9.106;2023-02-28T02:00:13;-1.70;99.90
19586;DHT22;9939;49.246;9.106;2023-02-28T02:02:46;-1.60;99.90
19586;DHT22;9939;49.246;9.106;2023-02-28T02:05:15;-1.70;99.90
19586;DHT22;9939;49.246;9.106;2023-02-28T02:07:43;-1.70;99.90
19586;DHT22;9939;49.246;9.106;2023-02-28T02:10:14;-1.70;99.90
19586;DHT22;9939;49.246;9.106;2023-02-28T02:15:16;-1.60;99.90
19586;DHT22;9939;49.246;9.106;2023-02-28T02:17:48;-1.70;99.90
19586;DHT22;9939;49.246;9.106;2023-02-28T02:25:42;-1.80;99.90
19586;DHT22;9939;49.246;9.106;2023-02-28T02:31:03;-1.70;99.90
19586;DHT22;9939;49.246;9.106;2023-02-28T02:36:18;-1.90;99.90
19586;DHT22;9939;49.246;9.106;2023-02-28T02:44:15;-1.90;99.90
19586;DHT22;9939;49.246;9.106;2023-02-28T02:46:44;-1.80;99.90
19586;DHT22;9939;49.246;9.106;2023-02-28T02:49:13;-1.90;99.90
19586;DHT22;9939;49.246;9.106;2023-02-28T02:51:42;-1.80;99.90
19586;DHT22;9939;49.246;9.106;2023-02-28T02:54:15;-1.90;99.90
19586;DHT22;9939;49.246;9.106;2023-02-28T02:56:44;-2.00;99.90
19586;DHT22;9939;49.246;9.106;2023-02-28T02:59:12;-2.00;99.90
19586;DHT22;9939;49.246;9.106;2023-02-28T03:01:40;-2.10;99.90
19586;DHT22;9939;49.246;9.106;2023-02-28T03:04:08;-2.00;99.90
19586;DHT22;9939;49.246;9.106;2023-02-28T03:06:37;-2.00;99.90
19586;DHT22;9939;49.246;9.106;2023-02-28T03:09:04;-2.00;99.90
19586;DHT22;9939;49.246;9.106;2023-02-28T03:11:31;-1.90;99.90
19586;DHT22;9939;49.246;9.106;2023-02-28T03:14:03;-2.00;99.90
19586;DHT22;9939;49.246;9.106;2023-02-28T03:26:52;-2.20;99.90
19586;DHT22;9939;49.246;9.106;2023-02-28T03:31:50;-2.10;99.90
19586;DHT22;9939;49.246;9.106;2023-02-28T03:34:21;-2.10;99.90
19586;DHT22;9939;49.246;9.106;2023-02-28T03:36:51;-2.10;99.90
19586;DHT22;9939;49.246;9.106;2023-02-28T03:39:21;-2.00;99.90
19586;DHT22;9939;49.246;9.106;2023-02-28T03:41:54;-2.00;99.90
19586;DHT22;9939;49.246;9.106;2023-02-28T03:44:24;-2.00;99.90
19586;DHT22;9939;49.246;9.106;2023-02-28T03:49:35;-1.90;99.90
19586;DHT22;9939;49.246;9.106;2023-02-28T03:52:04;-1.80;99.90
19586;DHT22;9939;49.246;9.106;2023-02-28T03:54:33;-1.80;99.90
19586;DHT22;9939;49.246;9.106;2023-02-28T03:59:49;-1.70;99.90
19586;DHT22;9939;49.246;9.106;2023-02-28T04:02:17;-1.60;99.90
19586;DHT22;9939;49.246;9.106;2023-02-28T04:04:45;-1.70;99.90
19586;DHT22;9939;49.246;9.106;2023-02-28T04:07:15;-1.60;99.90
19586;DHT22;9939;49.246;9.106;2023-02-28T04:09:42;-1.60;99.90
19586;DHT22;9939;49.246;9.106;2023-02-28T04:12:09;-1.60;99.90
19586;DHT22;9939;49.246;9.106;2023-02-28T04:14:36;-1.50;99.90
19586;DHT22;9939;49.246;9.106;2023-02-28T04:17:03;-1.50;99.90
19586;DHT22;9939;49.246;9.106;2023-02-28T04:19:30;-1.50;99.90
19586;DHT22;9939;49.246;9.106;2023-02-28T04:21:56;-1.50;99.90
19586;DHT22;9939;49.246;9.106;2023-02-28T04:24:24;-1.50;99.90
19586;DHT22;9939;49.246;9.106;2023-02-28T04:26:52;-1.50;99.90
19586;DHT22;9939;49.246;9.106;2023-02-28T04:29:20;-1.60;99.90
19586;DHT22;9939;49.246;9.106;2023-02-28T04:31:47;-1.50;99.90
19586;DHT22;9939;49.246;9.106;2023-02-28T04:34:15;-1.40;99.90
19586;DHT22;9939;49.246;9.106;2023-02-28T04:36:42;-1.50;99.90
19586;DHT22;9939;49.246;9.106;2023-02-28T04:39:09;-1.40;99.90
19586;DHT22;9939;49.246;9.106;2023-02-28T04:41:36;-1.40;99.90
19586;DHT22;9939;49.246;9.106;2023-02-28T04:44:03;-1.30;99.90
19586;DHT22;9939;49.246;9.106;2023-02-28T04:46:30;-1.40;99.90
19586;DHT22;9939;49.246;9.106;2023-02-28T04:48:57;-1.40;99.90
19586;DHT22;9939;49.246;9.106;2023-02-28T04:51:24;-1.40;99.90
19586;DHT22;9939;49.246;9.106;2023-02-28T04:53:51;-1.40;99.90
19586;DHT22;9939;49.246;9.106;2023-02-28T04:56:18;-1.40;99.90
19586;DHT22;9939;49.246;9.106;2023-02-28T04:58:45;-1.50;99.90
19586;DHT22;9939;49.246;9.106;2023-02-28T05:03:42;-1.50;99.90
19586;DHT22;9939;49.246;9.106;2023-02-28T05:06:09;-1.50;99.90
19586;DHT22;9939;49.246;9.106;2023-02-28T05:08:37;-1.60;99.90
19586;DHT22;9939;49.246;9.106;2023-02-28T05:11:03;-1.60;99.90
19586;DHT22;9939;49.246;9.106;2023-02-28T05:13:30;-1.50;99.90
19586;DHT22;9939;49.246;9.106;2023-02-28T05:15:57;-1.50;99.90
19586;DHT22;9939;49.246;9.106;2023-02-28T05:18:24;-1.50;99.90
19586;DHT22;9939;49.246;9.106;2023-02-28T05:20:51;-1.50;99.90
19586;DHT22;9939;49.246;9.106;2023-02-28T05:23:18;-1.50;99.90
19586;DHT22;9939;49.246;9.106;2023-02-28T05:25:46;-1.50;99.90
19586;DHT22;9939;49.246;9.106;2023-02-28T05:28:13;-1.50;99.90
19586;DHT22;9939;49.246;9.106;2023-02-28T05:30:40;-1.40;99.90
19586;DHT22;9939;49.246;9.106;2023-02-28T05:33:09;-1.50;99.90
19586;DHT22;9939;49.246;9.106;2023-02-28T05:35:38;-1.50;99.90
19586;DHT22;9939;49.246;9.106;2023-02-28T05:38:04;-1.50;99.90
19586;DHT22;9939;49.246;9.106;2023-02-28T05:40:31;-1.70;99.90
19586;DHT22;9939;49.246;9.106;2023-02-28T05:42:58;-1.70;99.90
19586;DHT22;9939;49.246;9.106;2023-02-28T05:45:25;-1.60;99.90
19586;DHT22;9939;49.246;9.106;2023-02-28T05:47:54;-1.70;99.90
19586;DHT22;9939;49.246;9.106;2023-02-28T05:50:21;-1.70;99.90
19586;DHT22;9939;49.246;9.106;2023-02-28T05:52:49;-1.60;99.90
19586;DHT22;9939;49.246;9.106;2023-02-28T05:55:16;-1.60;99.90
19586;DHT22;9939;49.246;9.106;2023-02-28T05:57:43;-1.60;99.90
19586;DHT22;9939;49.246;9.106;2023-02-28T06:00:10;-1.50;99.90
19586;DHT22;9939;49.246;9.106;2023-02-28T06:02:40;-1.60;99.90
19586;DHT22;9939;49.246;9.106;2023-02-28T06:05:10;-1.70;99.90
19586;DHT22;9939;49.246;9.106;2023-02-28T06:07:39;-1.70;99.90
19586;DHT22;9939;49.246;9.106;2023-02-28T06:10:06;-1.70;99.90
19586;DHT22;9939;49.246;9.106;2023-02-28T06:12:33;-1.70;99.90
19586;DHT22;9939;49.246;9.106;2023-02-28T06:14:59;-1.80;99.90
19586;DHT22;9939;49.246;9.106;2023-02-28T06:17:26;-1.80;99.90
19586;DHT22;9939;49.246;9.106;2023-02-28T06:19:53;-1.80;99.90
19586;DHT22;9939;49.246;9.106;2023-02-28T06:22:20;-1.80;99.90
19586;DHT22;9939;49.246;9.106;2023-02-28T06:24:47;-1.80;99.90
19586;DHT22;9939;49.246;9.106;2023-02-28T06:27:14;-1.80;99.90
19586;DHT22;9939;49.246;9.106;2023-02-28T06:29:41;-1.80;99.90
19586;DHT22;9939;49.246;9.106;2023-02-28T06:32:07;-1.80;99.90
19586;DHT22;9939;49.246;9.106;2023-02-28T06:34:34;-1.80;99.90
19586;DHT22;9939;49.246;9.106;2023-02-28T06:37:02;-1.80;99.90
19586;DHT22;9939;49.246;9.106;2023-02-28T06:39:29;-1.80;99.90
19586;DHT22;9939;49.246;9.106;2023-02-28T06:41:56;-1.80;99.90
19586;DHT22;9939;49.246;9.106;2023-02-28T06:44:23;-1.80;99.90
19586;DHT22;9939;49.246;9.106;2023-02-28T06:46:50;-1.60;99.90
19586;DHT22;9939;49.246;9.106;2023-02-28T06:49:17;-1.50;99.90
19586;DHT22;9939;49.246;9.106;2023-02-28T06:51:44;-1.60;99.90
19586;DHT22;9939;49.246;9.106;2023-02-28T06:54:14;-1.50;99.90
19586;DHT22;9939;49.246;9.106;2023-02-28T06:56:40;-1.50;99.90
19586;DHT22;9939;49.246;9.106;2023-02-28T06:59:07;-1.40;99.90
19586;DHT22;9939;49.246;9.106;2023-02-28T07:01:34;-1.30;99.90
19586;DHT22;9939;49.246;9.106;2023-02-28T07:04:01;-1.20;99.90
19586;DHT22;9939;49.246;9.106;2023-02-28T07:06:28;-1.20;99.90
19586;DHT22;9939;49.246;9.106;2023-02-28T07:08:55;-1.20;99.90
19586;DHT22;9939;49.246;9.106;2023-02-28T07:11:22;-1.10;99.90
19586;DHT22;9939;49.246;9.106;2023-02-28T07:13:49;-1.00;99.90
19586;DHT22;9939;49.246;9.106;2023-02-28T07:16:17;-1.00;99.90
19586;DHT22;9939;49.246;9.106;2023-02-28T07:18:44;-0.90;99.90
19586;DHT22;9939;49.246;9.106;2023-02-28T07:21:11;-0.90;99.90
19586;DHT22;9939;49.246;9.106;2023-02-28T07:23:38;-0.80;99.90
19586;DHT22;9939;49.246;9.106;2023-02-28T07:26:06;-0.70;99.90
19586;DHT22;9939;49.246;9.106;2023-02-28T07:28:33;-0.60;99.90
19586;DHT22;9939;49.246;9.106;2023-02-28T07:31:03;-0.50;99.90
19586;DHT22;9939;49.246;9.106;2023-02-28T07:33:31;-0.10;99.90
19586;DHT22;9939;49.246;9.106;2023-02-28T07:36:02;0.20;99.90
19586;DHT22;9939;49.246;9.106;2023-02-28T07:38:29;0.30;99.90
19586;DHT22;9939;49.246;9.106;2023-02-28T07:40:55;0.00;99.90
19586;DHT22;9939;49.246;9.106;2023-02-28T07:43:22;-0.20;99.90
19586;DHT22;9939;49.246;9.106;2023-02-28T07:45:49;-0.30;99.90
19586;DHT22;9939;49.246;9.106;2023-02-28T07:48:16;-0.40;99.90
19586;DHT22;9939;49.246;9.106;2023-02-28T07:50:43;-0.20;99.90
19586;DHT22;9939;49.246;9.106;2023-02-28T07:53:10;0.40;99.90
19586;DHT22;9939;49.246;9.106;2023-02-28T07:55:36;1.00;99.90
19586;DHT22;9939;49.246;9.106;2023-02-28T07:58:03;1.50;99.90
19586;DHT22;9939;49.246;9.106;2023-02-28T08:00:30;1.80;99.90
19586;DHT22;9939;49.246;9.106;2023-02-28T08:02:58;2.10;99.90
19586;DHT22;9939;49.246;9.106;2023-02-28T08:05:25;2.00;99.90
19586;DHT22;9939;49.246;9.106;2023-02-28T08:07:52;2.00;99.90
19586;DHT22;9939;49.246;9.106;2023-02-28T08:10:19;2.30;99.90
19586;DHT22;9939;49.246;9.106;2023-02-28T08:12:46;2.50;99.90
19586;DHT22;9939;49.246;9.106;2023-02-28T08:15:13;2.40;99.90
19586;DHT22;9939;49.246;9.106;2023-02-28T08:17:40;2.70;99.90
19586;DHT22;9939;49.246;9.106;2023-02-28T08:20:07;3.10;99.90
19586;DHT22;9939;49.246;9.106;2023-02-28T08:22:34;3.50;99.90
19586;DHT22;9939;49.246;9.106;2023-02-28T08:25:00;3.80;99.90
19586;DHT22;9939;49.246;9.106;2023-02-28T08:27:27;3.90;99.90
19586;DHT22;9939;49.246;9.106;2023-02-28T08:29:54;3.60;99.90
19586;DHT22;9939;49.246;9.106;2023-02-28T08:32:21;3.40;99.90
19586;DHT22;9939;49.246;9.106;2023-02-28T08:34:56;3.40;99.90
19586;DHT22;9939;49.246;9.106;2023-02-28T08:37:23;3.10;99.90
19586;DHT22;9939;49.246;9.106;2023-02-28T08:39:50;3.00;99.90
19586;DHT22;9939;49.246;9.106;2023-02-28T08:42:21;3.60;99.90
19586;DHT22;9939;49.246;9.106;2023-02-28T08:44:48;3.90;99.90
19586;DHT22;9939;49.246;9.106;2023-02-28T08:47:14;4.60;99.90
19586;DHT22;9939;49.246;9.106;2023-02-28T08:49:41;4.90;99.90
19586;DHT22;9939;49.246;9.106;2023-02-28T08:52:08;5.10;99.90
19586;DHT22;9939;49.246;9.106;2023-02-28T08:54:35;4.70;99.90
19586;DHT22;9939;49.246;9.106;2023-02-28T08:57:02;4.50;99.90
19586;DHT22;9939;49.246;9.106;2023-02-28T08:59:29;4.80;99.90
19586;DHT22;9939;49.246;9.106;2023-02-28T09:01:56;5.20;99.90
19586;DHT22;9939;49.246;9.106;2023-02-28T09:04:23;4.50;99.90
19586;DHT22;9939;49.246;9.106;2023-02-28T09:06:51;4.30;99.90
19586;DHT22;9939;49.246;9.106;2023-02-28T09:09:18;4.60;99.90
19586;DHT22;9939;49.246;9.106;2023-02-28T09:11:45;4.60;99.90
19586;DHT22;9939;49.246;9.106;2023-02-28T09:14:11;5.00;99.90
19586;DHT22;9939;49.246;9.106;2023-02-28T09:16:38;5.60;99.90
19586;DHT22;9939;49.246;9.106;2023-02-28T09:19:06;5.60;99.90
19586;DHT22;9939;49.246;9.106;2023-02-28T09:21:32;6.00;99.90
19586;DHT22;9939;49.246;9.106;2023-02-28T09:23:59;6.60;99.90
19586;DHT22;9939;49.246;9.106;2023-02-28T09:26:26;7.30;99.90
19586;DHT22;9939;49.246;9.106;2023-02-28T09:29:08;7.80;99.90
19586;DHT22;9939;49.246;9.106;2023-02-28T09:31:35;8.20;99.90
19586;DHT22;9939;49.246;9.106;2023-02-28T09:34:03;7.80;99.90
19586;DHT22;9939;49.246;9.106;2023-02-28T09:36:30;7.40;99.90
19586;DHT22;9939;49.246;9.106;2023-02-28T09:39:09;7.70;99.90
19586;DHT22;9939;49.246;9.106;2023-02-28T09:41:37;7.20;99.90
19586;DHT22;9939;49.246;9.106;2023-02-28T09:44:06;7.70;99.90
19586;DHT22;9939;49.246;9.106;2023-02-28T09:46:37;7.50;99.90
19586;DHT22;9939;49.246;9.106;2023-02-28T09:49:19;8.60;99.90
19586;DHT22;9939;49.246;9.106;2023-02-28T09:54:16;8.90;99.90
19586;DHT22;9939;49.246;9.106;2023-02-28T09:56:48;9.30;99.90
19586;DHT22;9939;49.246;9.106;2023-02-28T09:59:25;8.90;99.90
19586;DHT22;9939;49.246;9.106;2023-02-28T10:06:55;8.10;99.90
19586;DHT22;9939;49.246;9.106;2023-02-28T10:09:26;8.00;99.90
19586;DHT22;9939;49.246;9.106;2023-02-28T10:11:57;7.90;99.90
19586;DHT22;9939;49.246;9.106;2023-02-28T10:14:26;7.90;99.90
19586;DHT22;9939;49.246;9.106;2023-02-28T10:22:20;7.60;99.90
19586;DHT22;9939;49.246;9.106;2023-02-28T10:24:49;7.20;99.90
19586;DHT22;9939;49.246;9.106;2023-02-28T10:29:48;7.40;99.90
19586;DHT22;9939;49.246;9.106;2023-02-28T10:32:19;8.20;99.90
19586;DHT22;9939;49.246;9.106;2023-02-28T10:35:00;7.50;99.90
19586;DHT22;9939;49.246;9.106;2023-02-28T10:37:29;8.00;99.90
19586;DHT22;9939;49.246;9.106;2023-02-28T10:39:58;8.40;99.90
19586;DHT22;9939;49.246;9.106;2023-02-28T10:42:29;7.90;99.90
19586;DHT22;9939;49.246;9.106;2023-02-28T10:45:16;8.90;99.90
19586;DHT22;9939;49.246;9.106;2023-02-28T10:50:35;9.00;99.90
19586;DHT22;9939;49.246;9.106;2023-02-28T10:53:50;8.70;99.90
19586;DHT22;9939;49.246;9.106;2023-02-28T10:55:59;9.20;99.90
19586;DHT22;9939;49.246;9.106;2023-02-28T10:58:29;7.70;99.90
19586;DHT22;9939;49.246;9.106;2023-02-28T11:00:56;6.30;99.90
19586;DHT22;9939;49.246;9.106;2023-02-28T11:03:24;7.10;99.90
19586;DHT22;9939;49.246;9.106;2023-02-28T11:05:51;7.60;99.90
19586;DHT22;9939;49.246;9.106;2023-02-28T11:08:18;8.20;99.90
19586;DHT22;9939;49.246;9.106;2023-02-28T11:10:55;8.00;99.90
19586;DHT22;9939;49.246;9.106;2023-02-28T11:13:25;8.20;99.90
19586;DHT22;9939;49.246;9.106;2023-02-28T11:15:53;8.50;99.90
19586;DHT22;9939;49.246;9.106;2023-02-28T11:20:48;9.50;99.90
19586;DHT22;9939;49.246;9.106;2023-02-28T11:23:15;9.60;99.90
19586;DHT22;9939;49.246;9.106;2023-02-28T11:25:46;11.10;99.90
19586;DHT22;9939;49.246;9.106;2023-02-28T11:28:36;9.00;99.90
19586;DHT22;9939;49.246;9.106;2023-02-28T11:31:03;7.10;99.90
19586;DHT22;9939;49.246;9.106;2023-02-28T11:33:31;6.50;99.90
19586;DHT22;9939;49.246;9.106;2023-02-28T11:36:03;8.30;99.90
19586;DHT22;9939;49.246;9.106;2023-02-28T11:38:31;8.20;99.90
19586;DHT22;9939;49.246;9.106;2023-02-28T11:43:51;7.90;99.90
19586;DHT22;9939;49.246;9.106;2023-02-28T11:48:57;6.30;99.90
19586;DHT22;9939;49.246;9.106;2023-02-28T11:51:32;6.00;99.90
19586;DHT22;9939;49.246;9.106;2023-02-28T11:56:37;6.20;99.90
19586;DHT22;9939;49.246;9.106;2023-02-28T12:02:00;6.00;99.90
19586;DHT22;9939;49.246;9.106;2023-02-28T12:04:39;6.20;99.90
19586;DHT22;9939;49.246;9.106;2023-02-28T12:09:51;6.10;99.90
19586;DHT22;9939;49.246;9.106;2023-02-28T12:12:27;6.40;99.90
19586;DHT22;9939;49.246;9.106;2023-02-28T12:27:42;7.00;99.90
19586;DHT22;9939;49.246;9.106;2023-02-28T12:32:42;6.80;99.90
19586;DHT22;9939;49.246;9.106;2023-02-28T12:35:14;7.10;99.90
19586;DHT22;9939;49.246;9.106;2023-02-28T12:37:46;7.30;99.90
19586;DHT22;9939;49.246;9.106;2023-02-28T12:40:17;6.50;99.90
19586;DHT22;9939;49.246;9.106;2023-02-28T12:42:46;6.60;99.90
19586;DHT22;9939;49.246;9.106;2023-02-28T12:47:44;6.70;99.90
19586;DHT22;9939;49.246;9.106;2023-02-28T12:50:13;6.80;99.90
19586;DHT22;9939;49.246;9.106;2023-02-28T12:52:41;6.70;99.90
19586;DHT22;9939;49.246;9.106;2023-02-28T12:55:14;6.20;99.90
19586;DHT22;9939;49.246;9.106;2023-02-28T12:57:43;5.90;99.90
19586;DHT22;9939;49.246;9.106;2023-02-28T13:00:16;5.90;99.90
19586;DHT22;9939;49.246;9.106;2023-02-28T13:13:14;6.80;99.90
19586;DHT22;9939;49.246;9.106;2023-02-28T13:15:41;6.90;99.90
19586;DHT22;9939;49.246;9.106;2023-02-28T13:20:55;7.00;99.90
19586;DHT22;9939;49.246;9.106;2023-02-28T13:23:39;7.00;99.90
19586;DHT22;9939;49.246;9.106;2023-02-28T13:26:06;7.80;99.90
19586;DHT22;9939;49.246;9.106;2023-02-28T13:31:26;7.20;99.90
19586;DHT22;9939;49.246;9.106;2023-02-28T13:36:25;8.60;99.90
19586;DHT22;9939;49.246;9.106;2023-02-28T13:38:53;9.20;99.90
19586;DHT22;9939;49.246;9.106;2023-02-28T13:46:25;8.70;99.90
19586;DHT22;9939;49.246;9.106;2023-02-28T13:48:52;8.50;99.90
19586;DHT22;9939;49.246;9.106;2023-02-28T13:51:34;8.90;99.90
19586;DHT22;9939;49.246;9.106;2023-02-28T13:59:33;9.30;99.90
19586;DHT22;9939;49.246;9.106;2023-02-28T14:04:53;8.40;99.90
19586;DHT22;9939;49.246;9.106;2023-02-28T14:07:25;8.30;99.90
19586;DHT22;9939;49.246;9.106;2023-02-28T14:09:57;8.70;99.90
19586;DHT22;9939;49.246;9.106;2023-02-28T14:18:04;9.40;99.90
19586;DHT22;9939;49.246;9.106;2023-02-28T14:20:32;9.30;99.90
19586;DHT22;9939;49.246;9.106;2023-02-28T14:28:41;9.10;99.90
19586;DHT22;9939;49.246;9.106;2023-02-28T14:31:12;8.50;99.90
19586;DHT22;9939;49.246;9.106;2023-02-28T14:36:12;8.40;99.90
19586;DHT22;9939;49.246;9.106;2023-02-28T14:38:55;8.50;99.90
19586;DHT22;9939;49.246;9.106;2023-02-28T14:41:33;8.30;99.90
19586;DHT22;9939;49.246;9.106;2023-02-28T14:46:41;9.10;99.90
19586;DHT22;9939;49.246;9.106;2023-02-28T14:49:19;9.60;99.90
19586;DHT22;9939;49.246;9.106;2023-02-28T14:51:47;10.90;99.90
19586;DHT22;9939;49.246;9.106;2023-02-28T14:54:16;10.90;99.90
19586;DHT22;9939;49.246;9.106;2023-02-28T14:56:48;9.70;99.90
19586;DHT22;9939;49.246;9.106;2023-02-28T14:59:28;8.80;99.90
19586;DHT22;9939;49.246;9.106;2023-02-28T15:04:41;7.60;99.90
19586;DHT22;9939;49.246;9.106;2023-02-28T15:07:14;7.00;99.90
19586;DHT22;9939;49.246;9.106;2023-02-28T15:09:41;7.10;99.90
19586;DHT22;9939;49.246;9.106;2023-02-28T15:12:10;6.60;99.90
19586;DHT22;9939;49.246;9.106;2023-02-28T15:14:41;6.40;99.90
19586;DHT22;9939;49.246;9.106;2023-02-28T15:17:19;6.10;99.90
19586;DHT22;9939;49.246;9.106;2023-02-28T15:19:50;6.10;99.90
19586;DHT22;9939;49.246;9.106;2023-02-28T15:22:20;6.10;99.90
19586;DHT22;9939;49.246;9.106;2023-02-28T15:24:51;5.90;99.90
19586;DHT22;9939;49.246;9.106;2023-02-28T15:27:20;6.10;99.90
19586;DHT22;9939;49.246;9.106;2023-02-28T15:29:48;6.00;99.90
19586;DHT22;9939;49.246;9.106;2023-02-28T15:34:53;5.70;99.90
19586;DHT22;9939;49.246;9.106;2023-02-28T15:37:25;5.80;99.90
19586;DHT22;9939;49.246;9.106;2023-02-28T15:39:53;5.70;99.90
19586;DHT22;9939;49.246;9.106;2023-02-28T15:42:22;5.70;99.90
19586;DHT22;9939;49.246;9.106;2023-02-28T15:44:49;5.70;99.90
19586;DHT22;9939;49.246;9.106;2023-02-28T15:47:20;5.60;99.90
19586;DHT22;9939;49.246;9.106;2023-02-28T15:52:45;5.70;99.90
19586;DHT22;9939;49.246;9.106;2023-02-28T15:55:26;5.70;99.90
19586;DHT22;9939;49.246;9.106;2023-02-28T15:57:55;5.60;99.90
19586;DHT22;9939;49.246;9.106;2023-02-28T16:00:26;5.60;99.90
19586;DHT22;9939;49.246;9.106;2023-02-28T16:02:53;5.50;99.90
19586;DHT22;9939;49.246;9.106;2023-02-28T16:05:24;5.40;99.90
19586;DHT22;9939;49.246;9.106;2023-02-28T16:10:44;5.40;99.90
19586;DHT22;9939;49.246;9.106;2023-02-28T16:13:11;5.30;99.90
19586;DHT22;9939;49.246;9.106;2023-02-28T16:15:42;4.80;99.90
19586;DHT22;9939;49.246;9.106;2023-02-28T16:18:13;4.50;99.90
19586;DHT22;9939;49.246;9.106;2023-02-28T16:20:40;4.40;99.90
19586;DHT22;9939;49.246;9.106;2023-02-28T16:23:06;4.30;99.90
19586;DHT22;9939;49.246;9.106;2023-02-28T16:25:36;4.30;99.90
19586;DHT22;9939;49.246;9.106;2023-02-28T16:28:03;4.10;99.90
19586;DHT22;9939;49.246;9.106;2023-02-28T16:30:30;4.10;99.90
19586;DHT22;9939;49.246;9.106;2023-02-28T16:33:00;3.90;99.90
19586;DHT22;9939;49.246;9.106;2023-02-28T16:35:27;3.80;99.90
19586;DHT22;9939;49.246;9.106;2023-02-28T16:37:54;3.70;99.90
19586;DHT22;9939;49.246;9.106;2023-02-28T16:40:22;3.60;99.90
19586;DHT22;9939;49.246;9.106;2023-02-28T16:42:50;3.60;99.90
19586;DHT22;9939;49.246;9.106;2023-02-28T16:45:22;3.50;99.90
19586;DHT22;9939;49.246;9.106;2023-02-28T16:47:49;3.50;99.90
19586;DHT22;9939;49.246;9.106;2023-02-28T16:50:18;3.40;99.90
19586;DHT22;9939;49.246;9.106;2023-02-28T16:52:45;3.30;99.90
19586;DHT22;9939;49.246;9.106;2023-02-28T16:55:12;3.20;99.90
19586;DHT22;9939;49.246;9.106;2023-02-28T16:57:39;3.10;99.90
19586;DHT22;9939;49.246;9.106;2023-02-28T17:00:07;3.10;99.90
19586;DHT22;9939;49.246;9.106;2023-02-28T17:02:34;3.00;99.90
19586;DHT22;9939;49.246;9.106;2023-02-28T17:05:02;2.90;99.90
19586;DHT22;9939;49.246;9.106;2023-02-28T17:07:29;2.80;99.90
19586;DHT22;9939;49.246;9.106;2023-02-28T17:09:55;2.70;99.90
19586;DHT22;9939;49.246;9.106;2023-02-28T17:12:22;2.60;99.90
19586;DHT22;9939;49.246;9.106;2023-02-28T17:14:49;2.60;99.90
19586;DHT22;9939;49.246;9.106;2023-02-28T17:17:17;2.50;99.90
19586;DHT22;9939;49.246;9.106;2023-02-28T17:19:44;2.50;99.90
19586;DHT22;9939;49.246;9.106;2023-02-28T17:22:11;2.50;99.90
19586;DHT22;9939;49.246;9.106;2023-02-28T17:24:38;2.40;99.90
19586;DHT22;9939;49.246;9.106;2023-02-28T17:27:05;2.60;99.90
19586;DHT22;9939;49.246;9.106;2023-02-28T17:29:32;2.40;99.90
19586;DHT22;9939;49.246;9.106;2023-02-28T17:31:59;2.30;99.90
19586;DHT22;9939;49.246;9.106;2023-02-28T17:34:34;2.30;99.90
19586;DHT22;9939;49.246;9.106;2023-02-28T17:37:01;2.20;99.90
19586;DHT22;9939;49.246;9.106;2023-02-28T17:39:29;2.30;99.90
19586;DHT22;9939;49.246;9.106;2023-02-28T17:41:57;2.30;99.90
19586;DHT22;9939;49.246;9.106;2023-02-28T17:44:24;2.10;99.90
19586;DHT22;9939;49.246;9.106;2023-02-28T17:46:51;2.20;99.90
19586;DHT22;9939;49.246;9.106;2023-02-28T17:49:20;2.10;99.90
19586;DHT22;9939;49.246;9.106;2023-02-28T17:51:47;2.00;99.90
19586;DHT22;9939;49.246;9.106;2023-02-28T17:54:14;2.00;99.90
19586;DHT22;9939;49.246;9.106;2023-02-28T17:56:43;2.00;99.90
19586;DHT22;9939;49.246;9.106;2023-02-28T17:59:10;1.90;99.90
19586;DHT22;9939;49.246;9.106;2023-02-28T18:01:37;1.90;99.90
19586;DHT22;9939;49.246;9.106;2023-02-28T18:04:04;2.00;99.90
19586;DHT22;9939;49.246;9.106;2023-02-28T18:06:34;1.80;99.90
19586;DHT22;9939;49.246;9.106;2023-02-28T18:09:02;1.80;99.90
19586;DHT22;9939;49.246;9.106;2023-02-28T18:11:29;1.80;99.90
19586;DHT22;9939;49.246;9.106;2023-02-28T18:14:08;1.70;99.90
19586;DHT22;9939;49.246;9.106;2023-02-28T18:16:34;1.80;99.90
19586;DHT22;9939;49.246;9.106;2023-02-28T18:19:01;1.80;99.90
19586;DHT22;9939;49.246;9.106;2023-02-28T18:21:32;1.70;99.90
19586;DHT22;9939;49.246;9.106;2023-02-28T18:23:59;1.60;99.90
19586;DHT22;9939;49.246;9.106;2023-02-28T18:26:26;1.70;99.90
19586;DHT22;9939;49.246;9.106;2023-02-28T18:28:54;1.60;99.90
19586;DHT22;9939;49.246;9.106;2023-02-28T18:31:20;1.50;99.90
19586;DHT22;9939;49.246;9.106;2023-02-28T18:33:48;1.50;99.90
19586;DHT22;9939;49.246;9.106;2023-02-28T18:36:15;1.60;99.90
19586;DHT22;9939;49.246;9.106;2023-02-28T18:38:42;1.50;99.90
19586;DHT22;9939;49.246;9.106;2023-02-28T18:41:09;1.50;99.90
19586;DHT22;9939;49.246;9.106;2023-02-28T18:43:37;1.40;99.90
19586;DHT22;9939;49.246;9.106;2023-02-28T18:46:05;1.30;99.90
19586;DHT22;9939;49.246;9.106;2023-02-28T18:48:32;1.40;99.90
19586;DHT22;9939;49.246;9.106;2023-02-28T18:51:04;1.40;99.90